Time;durP1;ratioP1;P1;durP2;ratioP2;P2;SDS_P1;SDS_P2;PMS_P1;PMS_P2;Temp;Humidity;BMP_temperature;BMP_pressure;BME280_temperature;BME280_humidity;BME280_pressure;Samples;Min_cycle;Max_cycle;Signal;HPM_P1;HPM_P2
2022/10/31 00:02:02;;;;;;;1.15;0.30;;;21.00;70.00;;;;;;5006901;28;20711;-28
2022/10/31 00:04:28;;;;;;;0.60;0.47;;;20.90;70.10;;;;;;5010470;28;20049;-28
2022/10/31 00:06:53;;;;;;;0.40;0.30;;;21.00;69.90;;;;;;5012300;28;20049;-21
2022/10/31 00:09:19;;;;;;;0.20;0.20;;;20.90;70.10;;;;;;5015722;28;20066;-21
2022/10/31 00:11:44;;;;;;;0.43;0.30;;;20.90;70.00;;;;;;5008578;28;20042;-21
2022/10/31 00:14:10;;;;;;;0.50;0.40;;;20.90;69.90;;;;;;5012449;28;20034;-22
2022/10/31 00:16:35;;;;;;;0.52;0.20;;;20.80;70.30;;;;;;5013092;28;20067;-22
2022/10/31 00:19:03;;;;;;;0.30;0.30;;;20.80;70.50;;;;;;5009096;28;20030;-22
2022/10/31 00:21:29;;;;;;;0.98;0.30;;;20.90;70.40;;;;;;5013521;28;20171;-30
2022/10/31 00:23:55;;;;;;;0.30;0.30;;;20.90;70.30;;;;;;5010601;28;22151;-21
2022/10/31 00:26:20;;;;;;;3.70;0.70;;;20.90;70.10;;;;;;5011393;28;20395;-23
2022/10/31 00:28:46;;;;;;;0.63;0.45;;;21.00;69.90;;;;;;5010230;28;20117;-20
2022/10/31 00:31:12;;;;;;;0.70;0.40;;;21.00;69.90;;;;;;5010883;28;20517;-22
2022/10/31 00:33:38;;;;;;;0.63;0.63;;;20.90;70.00;;;;;;5012570;28;20053;-25
2022/10/31 00:36:05;;;;;;;1.05;0.50;;;20.90;70.20;;;;;;5010845;28;20046;-24
2022/10/31 00:38:30;;;;;;;0.40;0.28;;;20.90;70.30;;;;;;5010002;28;20506;-36
2022/10/31 00:40:56;;;;;;;0.63;0.40;;;20.90;70.20;;;;;;5010958;28;20045;-39
2022/10/31 00:43:22;;;;;;;0.40;0.32;;;20.90;70.00;;;;;;5011526;28;20049;-36
2022/10/31 00:45:48;;;;;;;0.35;0.30;;;20.90;70.20;;;;;;5008308;28;20029;-38
2022/10/31 00:48:14;;;;;;;0.40;0.30;;;20.70;70.60;;;;;;5009694;28;20108;-42
2022/10/31 00:50:39;;;;;;;0.38;0.30;;;20.80;70.40;;;;;;4989707;28;20042;-34
2022/10/31 00:53:05;;;;;;;0.30;0.30;;;20.80;70.40;;;;;;4987119;28;20037;-38
2022/10/31 00:55:30;;;;;;;0.28;0.28;;;20.90;70.00;;;;;;4991384;28;20391;-41
2022/10/31 00:57:56;;;;;;;0.20;0.20;;;20.90;69.70;;;;;;4989182;28;20050;-39
2022/10/31 01:00:22;;;;;;;0.70;0.50;;;20.90;70.10;;;;;;4987929;28;20046;-38
2022/10/31 01:02:47;;;;;;;0.50;0.38;;;20.80;70.50;;;;;;5009189;28;20418;-35
2022/10/31 01:05:13;;;;;;;0.73;0.50;;;20.80;70.50;;;;;;4992456;28;20414;-35
2022/10/31 01:07:39;;;;;;;0.50;0.35;;;20.70;70.80;;;;;;4995209;28;20050;-34
2022/10/31 01:10:05;;;;;;;0.60;0.30;;;20.60;70.90;;;;;;4992388;28;20177;-37
2022/10/31 01:12:35;;;;;;;0.82;0.20;;;20.70;70.70;;;;;;4993083;28;20058;-43
2022/10/31 01:15:00;;;;;;;0.30;0.20;;;20.70;70.70;;;;;;4988386;28;20052;-37
2022/10/31 01:17:26;;;;;;;0.45;0.32;;;20.70;70.80;;;;;;4989709;28;20043;-38
2022/10/31 01:19:52;;;;;;;0.70;0.52;;;20.60;70.80;;;;;;4992338;28;20057;-38
2022/10/31 01:22:17;;;;;;;0.45;0.30;;;20.60;70.80;;;;;;5005189;28;20045;-38
2022/10/31 01:24:43;;;;;;;0.30;0.30;;;20.60;71.00;;;;;;5010843;28;20046;-36
2022/10/31 01:27:08;;;;;;;0.35;0.30;;;20.50;71.10;;;;;;5014680;28;20073;-36
2022/10/31 01:29:34;;;;;;;0.50;0.38;;;20.50;71.20;;;;;;5010158;28;20128;-40
2022/10/31 01:31:59;;;;;;;0.40;0.38;;;20.50;71.00;;;;;;5008145;28;20056;-39
2022/10/31 01:34:25;;;;;;;1.13;0.40;;;20.50;71.10;;;;;;5007728;28;20088;-38
2022/10/31 01:36:51;;;;;;;0.57;0.55;;;20.50;71.10;;;;;;5008435;28;20053;-37
2022/10/31 01:39:17;;;;;;;0.30;0.22;;;20.50;71.10;;;;;;5010303;28;20046;-39
2022/10/31 01:41:44;;;;;;;0.68;0.40;;;20.50;71.10;;;;;;5010126;28;20045;-36
2022/10/31 01:44:13;;;;;;;1.17;0.40;;;20.50;71.30;;;;;;5010605;28;20053;-36
2022/10/31 01:46:48;;;;;;;0.40;0.40;;;20.50;71.20;;;;;;5013968;28;20042;-39
2022/10/31 01:49:32;;;;;;;1.00;0.43;;;20.50;71.10;;;;;;5009735;28;20069;-36
2022/10/31 01:52:10;;;;;;;0.30;0.20;;;20.60;71.00;;;;;;5008143;28;20045;-39
2022/10/31 01:54:40;;;;;;;1.05;0.40;;;20.60;70.90;;;;;;5009938;28;20095;-37
2022/10/31 01:57:05;;;;;;;0.38;0.38;;;20.50;71.80;;;;;;5024104;28;20090;-38
2022/10/31 01:59:31;;;;;;;0.30;0.20;;;20.50;71.90;;;;;;5002214;28;20041;-37
2022/10/31 02:01:57;;;;;;;0.65;0.20;;;20.50;71.20;;;;;;5010862;28;20046;-35
2022/10/31 02:04:23;;;;;;;0.30;0.30;;;20.50;71.30;;;;;;5010350;28;20513;-38
2022/10/31 02:07:00;;;;;;;0.30;0.30;;;20.50;71.40;;;;;;5012088;28;20501;-36
2022/10/31 02:09:26;;;;;;;0.55;0.22;;;20.50;71.40;;;;;;4997701;28;20046;-37
2022/10/31 02:11:52;;;;;;;0.20;0.20;;;20.50;71.30;;;;;;5005772;28;20042;-37
2022/10/31 02:14:18;;;;;;;0.10;0.10;;;20.60;70.90;;;;;;4989995;28;20064;-38
2022/10/31 02:16:44;;;;;;;1.20;0.40;;;20.50;72.00;;;;;;5003604;28;20057;-38
2022/10/31 02:19:10;;;;;;;0.75;0.30;;;20.40;71.10;;;;;;5010324;28;20073;-36
2022/10/31 02:21:56;;;;;;;0.30;0.30;;;20.50;71.30;;;;;;5016049;28;20103;-38
2022/10/31 02:24:58;;;;;;;1.15;0.35;;;20.50;71.20;;;;;;5014336;28;20049;-36
2022/10/31 02:27:45;;;;;;;0.50;0.30;;;20.40;71.30;;;;;;5012084;28;20041;-38
2022/10/31 02:30:12;;;;;;;0.30;0.30;;;20.50;71.30;;;;;;5015237;28;20503;-39
2022/10/31 02:32:49;;;;;;;0.35;0.30;;;20.50;71.10;;;;;;5016826;28;20057;-34
2022/10/31 02:35:39;;;;;;;0.32;0.20;;;20.50;71.20;;;;;;5011534;28;20517;-37
2022/10/31 02:38:22;;;;;;;0.40;0.20;;;20.50;71.00;;;;;;5012832;28;20034;-38
2022/10/31 02:40:58;;;;;;;0.82;0.30;;;20.50;71.20;;;;;;5017487;28;20038;-39
2022/10/31 02:43:35;;;;;;;0.30;0.30;;;20.40;71.10;;;;;;5011313;28;20046;-38
2022/10/31 02:46:09;;;;;;;0.30;0.20;;;20.40;71.10;;;;;;5027734;28;20525;-34
2022/10/31 02:48:35;;;;;;;0.30;0.30;;;20.40;71.10;;;;;;5003527;28;20122;-37
2022/10/31 02:51:02;;;;;;;0.20;0.10;;;20.40;71.10;;;;;;5000090;28;20049;-37
2022/10/31 02:53:34;;;;;;;0.20;0.20;;;20.40;71.10;;;;;;5006774;28;20046;-38
2022/10/31 02:56:02;;;;;;;0.28;0.20;;;20.40;71.10;;;;;;5009393;28;20034;-38
2022/10/31 02:58:30;;;;;;;0.47;0.32;;;20.40;71.20;;;;;;5007094;28;20042;-37
2022/10/31 03:01:11;;;;;;;0.30;0.10;;;20.40;71.30;;;;;;5026450;28;20108;-39
2022/10/31 03:03:57;;;;;;;0.25;0.20;;;20.40;71.20;;;;;;5000369;28;20042;-39
2022/10/31 03:06:29;;;;;;;0.20;0.20;;;20.40;71.10;;;;;;5031385;28;20143;-37
2022/10/31 03:09:06;;;;;;;0.30;0.30;;;20.40;71.10;;;;;;5000857;28;20038;-30
2022/10/31 03:11:36;;;;;;;0.28;0.22;;;20.30;71.20;;;;;;5013490;28;20095;-37
2022/10/31 03:14:16;;;;;;;0.25;0.17;;;20.40;71.10;;;;;;5007492;28;20072;-37
2022/10/31 03:16:49;;;;;;;0.30;0.30;;;20.40;71.10;;;;;;5011450;28;20060;-43
2022/10/31 03:19:23;;;;;;;0.23;0.23;;;20.40;71.10;;;;;;4991891;28;20130;-36
2022/10/31 03:21:54;;;;;;;2.67;0.50;;;20.40;71.20;;;;;;5009572;28;20515;-38
2022/10/31 03:24:20;;;;;;;0.28;0.20;;;20.40;71.20;;;;;;4999168;28;20045;-37
2022/10/31 03:26:48;;;;;;;0.20;0.20;;;20.40;71.30;;;;;;5013383;28;20399;-39
2022/10/31 03:29:15;;;;;;;0.13;0.10;;;20.40;71.10;;;;;;5010544;28;20050;-40
2022/10/31 03:31:49;;;;;;;0.17;0.10;;;20.30;71.20;;;;;;5006335;28;20030;-37
2022/10/31 03:34:15;;;;;;;0.30;0.10;;;20.40;71.10;;;;;;5011582;28;20065;-39
2022/10/31 03:36:41;;;;;;;0.10;0.10;;;20.40;71.10;;;;;;5016609;28;20406;-36
2022/10/31 03:39:08;;;;;;;0.30;0.20;;;20.40;71.10;;;;;;5009054;28;20046;-38
2022/10/31 03:41:37;;;;;;;0.30;0.30;;;20.40;71.20;;;;;;5009103;28;20513;-38
2022/10/31 03:44:06;;;;;;;0.20;0.20;;;20.40;71.10;;;;;;4999216;28;20460;-35
2022/10/31 03:46:31;;;;;;;0.20;0.20;;;20.30;71.20;;;;;;5016479;28;20509;-35
2022/10/31 03:48:57;;;;;;;0.13;0.13;;;20.30;71.30;;;;;;5007397;28;20034;-32
2022/10/31 03:51:24;;;;;;;0.20;0.20;;;20.30;71.20;;;;;;5006247;28;20034;-37
2022/10/31 03:54:43;;;;;;;0.10;0.10;;;20.40;71.10;;;;;;5008050;28;20073;-37
2022/10/31 03:57:29;;;;;;;0.20;0.20;;;20.30;71.00;;;;;;4993074;28;20061;-37
2022/10/31 03:59:59;;;;;;;0.10;0.10;;;20.30;71.10;;;;;;4991364;28;20912;-42
2022/10/31 04:02:28;;;;;;;0.28;0.10;;;20.30;71.10;;;;;;4993689;28;20053;-35
2022/10/31 04:04:53;;;;;;;0.20;0.20;;;20.30;71.10;;;;;;4999989;28;20050;-37
2022/10/31 04:07:19;;;;;;;0.28;0.20;;;20.30;71.10;;;;;;4985823;28;20111;-39
2022/10/31 04:09:45;;;;;;;0.20;0.17;;;20.30;71.10;;;;;;4993490;28;20121;-39
2022/10/31 04:12:14;;;;;;;0.13;0.13;;;20.30;71.10;;;;;;5007052;28;20041;-41
2022/10/31 04:14:40;;;;;;;0.20;0.20;;;20.30;71.10;;;;;;5014092;28;20054;-39
2022/10/31 04:17:09;;;;;;;0.20;0.20;;;20.30;71.00;;;;;;4994344;28;20427;-37
2022/10/31 04:19:34;;;;;;;0.15;0.15;;;20.40;71.00;;;;;;5005281;28;20053;-44
2022/10/31 04:22:00;;;;;;;0.00;0.00;;;20.30;71.00;;;;;;4995708;28;20045;-36
2022/10/31 04:24:26;;;;;;;0.20;0.10;;;20.30;71.20;;;;;;4992505;28;20027;-38
2022/10/31 04:26:51;;;;;;;0.10;0.10;;;20.30;71.20;;;;;;4989651;28;20057;-39
2022/10/31 04:29:17;;;;;;;0.45;0.20;;;20.30;72.20;;;;;;4992866;28;20109;-37
2022/10/31 04:31:42;;;;;;;0.10;0.10;;;20.20;71.20;;;;;;5001537;28;20131;-38
2022/10/31 04:34:08;;;;;;;0.30;0.10;;;20.20;71.30;;;;;;5014719;28;20042;-36
2022/10/31 04:36:33;;;;;;;0.20;0.20;;;20.20;71.30;;;;;;5015493;28;20490;-44
2022/10/31 04:38:59;;;;;;;0.05;0.05;;;20.30;71.30;;;;;;5007282;28;20446;-35
2022/10/31 04:41:25;;;;;;;0.13;0.13;;;20.30;71.20;;;;;;5008876;28;20079;-38
2022/10/31 04:43:50;;;;;;;0.00;0.00;;;20.30;71.30;;;;;;5006491;28;20571;-37
2022/10/31 04:46:16;;;;;;;0.38;0.00;;;20.20;71.30;;;;;;5009338;28;20053;-38
2022/10/31 04:48:41;;;;;;;0.20;0.20;;;20.20;71.30;;;;;;5015315;28;20705;-40
2022/10/31 04:51:07;;;;;;;0.20;0.10;;;20.30;71.20;;;;;;5004971;28;20092;-41
2022/10/31 04:53:32;;;;;;;0.20;0.17;;;20.30;71.20;;;;;;5013889;28;20478;-38
2022/10/31 04:55:59;;;;;;;0.10;0.10;;;20.30;71.10;;;;;;5012435;28;20536;-37
2022/10/31 04:58:25;;;;;;;0.10;0.10;;;20.30;71.30;;;;;;5011923;28;20686;-36
2022/10/31 05:00:54;;;;;;;0.20;0.13;;;20.20;71.20;;;;;;5004603;28;20056;-36
2022/10/31 05:03:20;;;;;;;0.15;0.15;;;20.20;71.10;;;;;;5013828;28;20248;-43
2022/10/31 05:05:45;;;;;;;0.30;0.10;;;20.20;71.10;;;;;;5016943;28;20041;-38
2022/10/31 05:08:11;;;;;;;0.15;0.15;;;20.30;71.10;;;;;;5014547;28;20049;-37
2022/10/31 05:10:36;;;;;;;0.38;0.15;;;20.30;71.10;;;;;;5006510;28;20104;-38
2022/10/31 05:13:02;;;;;;;0.10;0.10;;;20.20;71.10;;;;;;5007593;28;20053;-38
2022/10/31 05:15:28;;;;;;;0.13;0.13;;;20.20;71.20;;;;;;4995729;28;20532;-39
2022/10/31 05:17:54;;;;;;;0.10;0.10;;;20.20;71.20;;;;;;4993038;28;20059;-40
2022/10/31 05:20:21;;;;;;;0.10;0.10;;;20.20;71.20;;;;;;4993749;28;20049;-38
2022/10/31 05:22:52;;;;;;;0.10;0.10;;;20.20;71.20;;;;;;4993620;28;20065;-38
2022/10/31 05:25:18;;;;;;;0.10;0.10;;;20.30;71.10;;;;;;5000479;28;20048;-37
2022/10/31 05:27:45;;;;;;;0.10;0.10;;;20.20;71.10;;;;;;5001272;28;20066;-36
2022/10/31 05:30:12;;;;;;;0.20;0.20;;;20.30;71.10;;;;;;4997617;28;20042;-39
2022/10/31 05:32:41;;;;;;;0.10;0.10;;;20.20;71.10;;;;;;5015452;28;20050;-39
2022/10/31 05:35:08;;;;;;;0.10;0.10;;;20.20;71.10;;;;;;5012494;28;20049;-36
2022/10/31 05:37:35;;;;;;;0.00;0.00;;;20.20;71.00;;;;;;5017800;28;20049;-38
2022/10/31 05:40:01;;;;;;;0.10;0.10;;;20.20;71.20;;;;;;5005170;28;20042;-38
2022/10/31 05:42:27;;;;;;;0.10;0.10;;;20.20;71.00;;;;;;5003991;28;20081;-38
2022/10/31 05:44:52;;;;;;;3.85;0.20;;;20.20;71.10;;;;;;4991112;28;20162;-38
2022/10/31 05:47:18;;;;;;;0.10;0.10;;;20.20;71.90;;;;;;4990915;28;20038;-39
2022/10/31 05:49:44;;;;;;;0.10;0.10;;;20.20;71.30;;;;;;4991383;28;20569;-34
2022/10/31 05:52:09;;;;;;;0.10;0.10;;;20.10;71.40;;;;;;4991470;28;20046;-36
2022/10/31 05:54:35;;;;;;;0.10;0.10;;;20.10;71.40;;;;;;4994725;28;20042;-39
2022/10/31 05:57:00;;;;;;;3.50;0.17;;;20.30;71.30;;;;;;4999960;28;20545;-38
2022/10/31 05:59:26;;;;;;;0.63;0.22;;;20.30;71.10;;;;;;5008822;28;20050;-36
2022/10/31 06:01:51;;;;;;;0.00;0.00;;;20.20;70.90;;;;;;5017108;28;20095;-35
2022/10/31 06:04:17;;;;;;;0.10;0.10;;;20.20;71.40;;;;;;5003798;28;20523;-36
2022/10/31 06:06:42;;;;;;;1.50;0.08;;;20.30;71.30;;;;;;5012781;28;20052;-39
2022/10/31 06:09:08;;;;;;;0.00;0.00;;;20.30;72.10;;;;;;4998625;28;20038;-38
2022/10/31 06:11:33;;;;;;;0.10;0.10;;;20.20;73.00;;;;;;4998885;28;20058;-37
2022/10/31 06:13:59;;;;;;;0.45;0.05;;;20.10;73.20;;;;;;4999883;28;20409;-34
2022/10/31 06:16:25;;;;;;;0.20;0.10;;;20.20;72.90;;;;;;5017332;28;21521;-38
2022/10/31 06:18:50;;;;;;;0.38;0.10;;;20.20;73.30;;;;;;5014406;28;20049;-39
2022/10/31 06:21:16;;;;;;;0.50;0.10;;;20.30;72.60;;;;;;5013583;28;20053;-39
2022/10/31 06:23:41;;;;;;;1.85;0.10;;;20.30;72.80;;;;;;5010228;28;20056;-39
2022/10/31 06:26:07;;;;;;;0.22;0.10;;;20.40;72.40;;;;;;5017005;28;20133;-35
2022/10/31 06:28:32;;;;;;;0.10;0.10;;;20.40;72.30;;;;;;5018168;28;20052;-37
2022/10/31 06:30:58;;;;;;;0.10;0.00;;;20.20;73.50;;;;;;5012448;28;20037;-36
2022/10/31 06:33:23;;;;;;;0.45;0.03;;;20.10;73.30;;;;;;5006033;28;20037;-36
2022/10/31 06:35:49;;;;;;;0.10;0.10;;;20.30;73.60;;;;;;5020957;28;20524;-39
2022/10/31 06:38:14;;;;;;;0.40;0.10;;;20.40;72.80;;;;;;5015203;28;20127;-22
2022/10/31 06:40:40;;;;;;;0.30;0.20;;;20.30;73.00;;;;;;4995973;28;20042;-22
2022/10/31 06:43:06;;;;;;;0.00;0.00;;;20.20;73.20;;;;;;4997123;28;20042;-21
2022/10/31 06:45:31;;;;;;;0.90;0.10;;;20.30;73.10;;;;;;4994039;28;20049;-30
2022/10/31 06:47:57;;;;;;;0.85;0.22;;;20.30;73.90;;;;;;4995263;28;20629;-24
2022/10/31 06:50:23;;;;;;;0.10;0.10;;;20.30;73.10;;;;;;4991342;28;20098;-23
2022/10/31 06:52:52;;;;;;;0.20;0.10;;;20.30;73.00;;;;;;5000135;28;20053;-21
2022/10/31 06:55:20;;;;;;;0.17;0.00;;;20.30;73.10;;;;;;4994155;28;20133;-26
2022/10/31 06:57:52;;;;;;;0.40;0.20;;;20.20;73.10;;;;;;4985636;28;20093;-22
2022/10/31 07:00:18;;;;;;;0.35;0.08;;;20.30;73.20;;;;;;4989316;28;20133;-25
2022/10/31 07:02:52;;;;;;;0.10;0.10;;;20.30;73.00;;;;;;5004363;28;20054;-22
2022/10/31 07:05:17;;;;;;;0.20;0.10;;;20.30;73.10;;;;;;5007339;28;20041;-21
2022/10/31 07:07:43;;;;;;;0.03;0.00;;;20.30;72.80;;;;;;5018536;28;20409;-21
2022/10/31 07:10:09;;;;;;;0.20;0.10;;;20.30;72.90;;;;;;5008539;28;20056;-24
2022/10/31 07:12:35;;;;;;;0.10;0.10;;;20.30;73.00;;;;;;5014200;28;20049;-22
2022/10/31 07:15:01;;;;;;;0.10;0.10;;;20.30;73.30;;;;;;5021182;28;20045;-22
2022/10/31 07:17:26;;;;;;;0.28;0.00;;;20.30;72.80;;;;;;5018610;28;20037;-23
2022/10/31 07:19:52;;;;;;;0.32;0.00;;;20.20;73.00;;;;;;5017427;28;20682;-22
2022/10/31 07:22:17;;;;;;;0.03;0.00;;;20.20;73.30;;;;;;5012577;28;20582;-22
2022/10/31 07:24:43;;;;;;;0.38;0.10;;;20.20;73.10;;;;;;5011874;28;20061;-23
2022/10/31 07:27:09;;;;;;;1.58;0.10;;;20.30;73.00;;;;;;5005468;28;20042;-22
2022/10/31 07:29:34;;;;;;;0.10;0.10;;;20.20;73.00;;;;;;4996330;28;20575;-23
2022/10/31 07:32:00;;;;;;;2.08;0.03;;;20.30;73.10;;;;;;4996747;28;20080;-23
2022/10/31 07:34:25;;;;;;;1.65;0.10;;;20.30;72.90;;;;;;4999284;28;20045;-24
2022/10/31 07:36:51;;;;;;;0.73;0.10;;;20.30;73.00;;;;;;4997960;28;20045;-22
2022/10/31 07:39:17;;;;;;;0.10;0.00;;;20.20;73.10;;;;;;4991671;28;20066;-27
2022/10/31 07:41:42;;;;;;;0.17;0.05;;;20.20;73.10;;;;;;5000029;28;20077;-22
2022/10/31 07:44:08;;;;;;;0.10;0.10;;;20.20;73.20;;;;;;5007128;28;20457;-22
2022/10/31 07:46:34;;;;;;;0.03;0.03;;;20.20;73.30;;;;;;5019646;28;20049;-22
2022/10/31 07:48:59;;;;;;;0.47;0.00;;;20.30;73.00;;;;;;5016631;28;20079;-24
2022/10/31 07:51:25;;;;;;;0.47;0.10;;;20.30;73.10;;;;;;5012803;28;20049;-23
2022/10/31 07:53:50;;;;;;;0.35;0.20;;;20.30;72.80;;;;;;5016666;28;20046;-22
2022/10/31 07:56:16;;;;;;;0.10;0.10;;;20.30;72.80;;;;;;5019102;28;20053;-21
2022/10/31 07:58:41;;;;;;;0.40;0.08;;;20.20;72.90;;;;;;5014245;28;20675;-21
2022/10/31 08:01:07;;;;;;;0.10;0.00;;;20.20;73.00;;;;;;4999720;28;20038;-21
2022/10/31 08:03:32;;;;;;;0.20;0.10;;;20.20;72.70;;;;;;4998872;28;20065;-22
2022/10/31 08:05:58;;;;;;;0.22;0.10;;;20.20;73.00;;;;;;4997042;28;20030;-21
2022/10/31 08:08:24;;;;;;;0.30;0.10;;;20.20;72.80;;;;;;4993151;28;20105;-22
2022/10/31 08:10:49;;;;;;;0.05;0.05;;;20.30;72.70;;;;;;4990026;28;20050;-22
2022/10/31 08:13:15;;;;;;;0.20;0.20;;;20.20;72.90;;;;;;5006775;28;20046;-22
2022/10/31 08:15:41;;;;;;;0.10;0.10;;;20.20;73.30;;;;;;5014152;28;20103;-21
2022/10/31 08:18:12;;;;;;;0.03;0.03;;;20.20;73.00;;;;;;5018514;28;20049;-22
2022/10/31 08:20:37;;;;;;;0.60;0.10;;;20.10;73.20;;;;;;5018541;28;20054;-21
2022/10/31 08:23:04;;;;;;;0.38;0.20;;;20.10;73.60;;;;;;5017971;28;20526;-22
2022/10/31 08:25:30;;;;;;;1.42;0.50;;;20.10;73.80;;;;;;5018895;28;20072;-22
2022/10/31 08:27:56;;;;;;;1.67;0.20;;;20.00;74.30;;;;;;5013436;28;20058;-24
2022/10/31 08:30:23;;;;;;;1.27;0.20;;;20.10;74.60;;;;;;5012025;28;20060;-21
2022/10/31 08:33:03;;;;;;;0.28;0.28;;;20.10;73.90;;;;;;4999917;28;20042;-22
2022/10/31 08:35:29;;;;;;;1.65;0.38;;;20.10;74.10;;;;;;4998509;28;20038;-22
2022/10/31 08:37:55;;;;;;;1.17;0.22;;;20.10;73.80;;;;;;4990754;28;20073;-21
2022/10/31 08:40:21;;;;;;;1.88;0.20;;;20.20;73.10;;;;;;4997484;28;20068;-23
2022/10/31 08:42:47;;;;;;;0.63;0.10;;;20.10;73.50;;;;;;4997516;28;20136;-21
2022/10/31 08:45:12;;;;;;;2.05;0.20;;;20.20;73.10;;;;;;4991972;28;20148;-22
2022/10/31 08:47:38;;;;;;;0.65;0.20;;;20.20;72.60;;;;;;4995007;28;20503;-23
2022/10/31 08:50:04;;;;;;;0.57;0.10;;;20.10;72.70;;;;;;4994354;28;20046;-23
2022/10/31 08:52:29;;;;;;;1.38;0.20;;;20.10;73.30;;;;;;5003320;28;20517;-22
2022/10/31 08:54:55;;;;;;;0.50;0.20;;;20.00;74.30;;;;;;5000130;28;20030;-21
2022/10/31 08:57:20;;;;;;;0.75;0.10;;;20.00;73.60;;;;;;4995329;28;20430;-22
2022/10/31 08:59:46;;;;;;;0.63;0.30;;;20.00;73.70;;;;;;4996500;28;20080;-21
2022/10/31 09:02:12;;;;;;;0.15;0.13;;;20.00;73.60;;;;;;4998771;28;20041;-22
2022/10/31 09:04:37;;;;;;;0.70;0.10;;;20.00;73.60;;;;;;4995825;28;20054;-23
2022/10/31 09:07:03;;;;;;;0.93;0.10;;;20.00;73.50;;;;;;4999192;28;20521;-22
2022/10/31 09:09:28;;;;;;;3.20;0.10;;;20.00;73.50;;;;;;4998220;28;20038;-21
2022/10/31 09:11:54;;;;;;;1.50;0.22;;;20.00;73.40;;;;;;4995546;28;20084;-22
2022/10/31 09:14:19;;;;;;;0.22;0.10;;;20.00;73.40;;;;;;4996596;28;20038;-21
2022/10/31 09:16:45;;;;;;;0.77;0.28;;;20.00;73.40;;;;;;4998665;28;20038;-21
2022/10/31 09:19:10;;;;;;;0.30;0.10;;;19.90;73.20;;;;;;4995317;28;20092;-25
2022/10/31 09:21:36;;;;;;;0.30;0.10;;;19.90;73.30;;;;;;4996206;28;20026;-21
2022/10/31 09:24:01;;;;;;;0.47;0.13;;;19.90;73.00;;;;;;5000906;28;20038;-22
2022/10/31 09:26:27;;;;;;;0.38;0.10;;;20.00;73.20;;;;;;4995878;28;20128;-22
2022/10/31 09:28:53;;;;;;;0.17;0.17;;;20.00;73.40;;;;;;4996818;28;20410;-26
2022/10/31 09:31:18;;;;;;;0.50;0.20;;;20.00;72.70;;;;;;4990673;28;20045;-20
2022/10/31 09:33:44;;;;;;;0.30;0.20;;;20.00;72.70;;;;;;4995820;28;20562;-22
2022/10/31 09:36:09;;;;;;;0.10;0.10;;;20.00;72.60;;;;;;5006283;28;20626;-23
2022/10/31 09:38:35;;;;;;;0.10;0.10;;;20.10;73.00;;;;;;5007308;28;20503;-22
2022/10/31 09:41:12;;;;;;;0.32;0.10;;;20.20;72.60;;;;;;5016270;28;20034;-24
2022/10/31 09:43:54;;;;;;;0.22;0.10;;;20.20;72.60;;;;;;5017642;28;20052;-22
2022/10/31 09:46:40;;;;;;;1.52;0.10;;;20.10;72.60;;;;;;5014030;28;20033;-21
2022/10/31 09:49:24;;;;;;;0.38;0.20;;;20.00;73.00;;;;;;5029733;28;20052;-23
2022/10/31 09:51:51;;;;;;;;;;;20.10;72.80;;;;;;5020322;28;20068;-22
2022/10/31 09:54:26;;;;;;;0.38;0.10;;;20.20;72.40;;;;;;5022413;28;19932;-21
2022/10/31 09:56:51;;;;;;;0.10;0.05;;;20.20;72.80;;;;;;4983651;28;20130;-22
2022/10/31 09:59:37;;;;;;;0.20;0.00;;;20.20;72.40;;;;;;5004418;28;20129;-22
2022/10/31 10:02:04;;;;;;;0.10;0.10;;;20.30;72.20;;;;;;5006109;28;20100;-21
2022/10/31 10:04:44;;;;;;;0.10;0.10;;;20.20;72.30;;;;;;4996071;28;20050;-27
2022/10/31 10:07:44;;;;;;;0.10;0.10;;;20.20;73.10;;;;;;4993436;28;20037;-21
2022/10/31 10:10:30;;;;;;;0.47;0.10;;;20.20;72.40;;;;;;5023199;28;20090;-22
2022/10/31 10:12:58;;;;;;;1.13;0.10;;;20.20;72.40;;;;;;5012151;28;20038;-21
2022/10/31 10:15:39;;;;;;;0.28;0.13;;;20.20;72.20;;;;;;5008061;28;20334;-24
2022/10/31 10:18:18;;;;;;;1.25;0.10;;;20.20;72.30;;;;;;5009866;28;20092;-21
2022/10/31 10:21:05;;;;;;;2.28;0.25;;;20.20;72.30;;;;;;5015584;28;20076;-22
2022/10/31 10:23:50;;;;;;;0.38;0.20;;;20.20;72.10;;;;;;5014521;28;20124;-22
2022/10/31 10:26:18;;;;;;;0.25;0.10;;;20.20;72.20;;;;;;5017662;28;20494;-22
2022/10/31 10:28:57;;;;;;;0.57;0.15;;;20.20;72.30;;;;;;5008090;28;20038;-22
2022/10/31 10:31:28;;;;;;;2.13;0.10;;;20.20;72.20;;;;;;5030425;28;20038;-21
2022/10/31 10:34:16;;;;;;;0.10;0.10;;;20.20;72.30;;;;;;5027800;28;20120;-23
2022/10/31 10:36:54;;;;;;;0.93;0.10;;;20.20;72.40;;;;;;5015439;28;20061;-21
2022/10/31 10:39:47;;;;;;;0.20;0.20;;;20.20;72.40;;;;;;5013914;28;20041;-23
2022/10/31 10:47:43;;;;;;;0.40;0.25;;;20.30;72.10;;;;;;5016485;28;20092;-22
2022/10/31 10:50:19;;;;;;;0.25;0.15;;;20.40;71.60;;;;;;5018318;28;20086;-22
2022/10/31 10:53:07;;;;;;;0.68;0.20;;;20.30;72.20;;;;;;5000745;28;20064;-21
2022/10/31 10:55:41;;;;;;;0.50;0.10;;;20.20;72.20;;;;;;5008354;28;20042;-24
2022/10/31 10:58:07;;;;;;;0.20;0.13;;;20.10;72.50;;;;;;5009156;28;20044;-22
2022/10/31 11:00:45;;;;;;;0.38;0.20;;;20.40;72.00;;;;;;5012783;28;20033;-22
2022/10/31 11:03:11;;;;;;;0.30;0.20;;;20.30;72.30;;;;;;5001231;28;20049;-22
2022/10/31 11:05:50;;;;;;;0.50;0.40;;;20.30;72.50;;;;;;4998048;28;20048;-21
2022/10/31 11:08:30;;;;;;;1.48;0.55;;;20.30;73.20;;;;;;4999718;28;20499;-22
2022/10/31 11:11:10;;;;;;;1.70;0.75;;;20.30;74.80;;;;;;4997500;28;20054;-24
2022/10/31 11:13:36;;;;;;;2.25;0.80;;;20.20;75.40;;;;;;5012901;28;20441;-22
2022/10/31 11:16:07;;;;;;;0.55;0.55;;;20.20;75.20;;;;;;4996260;28;20057;-23
2022/10/31 11:18:36;;;;;;;1.08;0.60;;;20.30;75.10;;;;;;5027651;28;20133;-25
2022/10/31 11:21:04;;;;;;;1.58;0.80;;;20.20;74.70;;;;;;5027466;28;20050;-22
2022/10/31 11:23:29;;;;;;;2.10;0.50;;;20.40;74.00;;;;;;5005528;28;20061;-22
2022/10/31 11:26:03;;;;;;;1.05;0.55;;;20.30;74.30;;;;;;5004937;28;20045;-23
2022/10/31 11:28:29;;;;;;;0.63;0.50;;;20.40;74.30;;;;;;5014848;28;20034;-21
2022/10/31 11:31:06;;;;;;;1.30;0.50;;;20.40;74.00;;;;;;5019080;28;20092;-23
2022/10/31 11:33:36;;;;;;;0.82;0.70;;;20.50;73.50;;;;;;5020720;28;20041;-25
2022/10/31 11:36:03;;;;;;;0.82;0.40;;;20.50;74.30;;;;;;5012383;28;20061;-23
2022/10/31 11:38:35;;;;;;;1.70;0.60;;;20.40;75.10;;;;;;5013103;28;20080;-24
2022/10/31 11:41:25;;;;;;;0.73;0.50;;;20.40;74.40;;;;;;4652210;28;10000025;-23
2022/10/31 11:43:56;;;;;;;1.27;0.73;;;20.40;74.90;;;;;;5006570;28;20055;-24
2022/10/31 11:46:43;;;;;;;1.50;0.60;;;20.50;74.10;;;;;;5024872;28;20125;-25
2022/10/31 11:49:30;;;;;;;1.30;0.52;;;20.70;73.50;;;;;;5003328;28;20103;-23
2022/10/31 11:51:57;;;;;;;0.70;0.60;;;20.50;74.50;;;;;;5016584;28;20129;-23
2022/10/31 11:54:27;;;;;;;1.02;0.60;;;20.40;74.90;;;;;;5020077;28;20077;-22
2022/10/31 11:56:53;;;;;;;0.95;0.63;;;20.40;75.00;;;;;;4997832;28;20362;-22
2022/10/31 11:59:31;;;;;;;1.52;0.88;;;20.40;75.00;;;;;;5009428;28;20054;-22
2022/10/31 12:01:59;;;;;;;0.68;0.68;;;20.40;75.00;;;;;;5012158;28;20391;-22
2022/10/31 12:04:46;;;;;;;0.70;0.70;;;20.40;75.00;;;;;;5013116;28;20127;-24
2022/10/31 12:07:12;;;;;;;2.45;0.85;;;20.40;74.90;;;;;;5015792;28;20069;-22
2022/10/31 12:09:38;;;;;;;3.17;0.85;;;20.40;75.00;;;;;;5015647;28;20502;-28
2022/10/31 12:12:22;;;;;;;1.42;1.13;;;20.50;74.40;;;;;;5029238;28;20034;-23
2022/10/31 12:14:47;;;;;;;1.05;0.85;;;20.50;74.10;;;;;;5011254;28;20522;-25
2022/10/31 12:17:14;;;;;;;0.60;0.57;;;20.50;74.50;;;;;;5012114;28;20033;-22
2022/10/31 12:19:50;;;;;;;1.90;0.63;;;20.60;74.40;;;;;;5006888;28;20525;-22
2022/10/31 12:22:42;;;;;;;2.67;1.25;;;20.40;74.30;;;;;;5009941;28;20042;-25
2022/10/31 12:25:30;;;;;;;3.17;0.90;;;20.50;74.90;;;;;;5005772;28;20073;-22
2022/10/31 12:28:01;;;;;;;1.20;0.65;;;20.40;75.00;;;;;;5008980;28;20049;-21
2022/10/31 12:30:50;;;;;;;1.17;0.65;;;20.30;75.00;;;;;;5016973;28;20081;-20
2022/10/31 12:33:41;;;;;;;2.67;0.73;;;20.30;75.00;;;;;;5008964;28;20064;-23
2022/10/31 12:36:29;;;;;;;1.25;0.55;;;20.30;75.00;;;;;;5018122;28;20116;-23
2022/10/31 12:38:59;;;;;;;1.60;0.90;;;20.20;74.90;;;;;;5003395;28;20037;-23
2022/10/31 12:41:44;;;;;;;1.00;0.73;;;20.30;74.70;;;;;;5022708;28;20041;-23
2022/10/31 12:44:21;;;;;;;1.98;0.65;;;20.30;75.00;;;;;;4996027;28;20050;-22
2022/10/31 12:46:54;;;;;;;1.75;0.60;;;20.30;74.80;;;;;;4987261;28;20468;-23
2022/10/31 12:49:19;;;;;;;0.93;0.90;;;20.20;75.00;;;;;;4988674;28;20038;-23
2022/10/31 12:51:55;;;;;;;2.85;1.10;;;20.40;74.60;;;;;;4990613;28;20050;-22
2022/10/31 12:54:52;;;;;;;0.75;0.75;;;20.50;74.40;;;;;;4988943;28;20050;-29
2022/10/31 12:57:28;;;;;;;1.33;0.93;;;20.30;75.10;;;;;;5011621;28;20042;-23
2022/10/31 13:00:00;;;;;;;0.93;0.93;;;20.30;74.80;;;;;;5005534;28;20065;-22
2022/10/31 13:02:50;;;;;;;2.95;1.48;;;20.30;75.00;;;;;;5022567;28;20065;-23
2022/10/31 13:05:27;;;;;;;1.55;1.13;;;20.20;75.40;;;;;;5002900;28;20061;-22
2022/10/31 13:07:59;;;;;;;0.88;0.88;;;20.20;75.40;;;;;;4989545;28;20107;-23